createdAt,value
2024-05-09T00:02:21.315Z,100182.44
2024-05-09T00:04:51.096Z,100180.88
2024-05-09T00:07:21.203Z,100176.69
2024-05-09T00:09:50.914Z,100185.88
2024-05-09T00:12:20.303Z,100168.69
2024-05-09T00:14:49.918Z,100138.91
2024-05-09T00:17:19.489Z,100169.50
2024-05-09T00:19:49.279Z,100176.84
2024-05-09T00:22:19.245Z,100178.38
2024-05-09T00:24:48.750Z,100165.84
2024-05-09T00:27:18.031Z,100154.16
2024-05-09T00:29:47.123Z,100152.13
2024-05-09T00:32:17.214Z,100157.81
2024-05-09T00:34:47.450Z,100143.34
2024-05-09T00:37:29.292Z,100140.50
2024-05-09T00:39:58.668Z,100137.31
2024-05-09T00:42:28.111Z,100104.63
2024-05-09T00:44:57.861Z,100129.75
2024-05-09T00:47:27.503Z,100128.47
2024-05-09T00:49:57.585Z,100122.53
2024-05-09T00:52:28.823Z,100102.50
2024-05-09T00:54:58.479Z,100115.72
2024-05-09T00:57:29.017Z,100087.63
2024-05-09T01:00:04.742Z,100097.81
2024-05-09T01:02:35.644Z,100098.19
2024-05-09T01:05:06.012Z,100094.91
2024-05-09T01:07:35.961Z,100087.69
2024-05-09T01:10:09.178Z,100087.22
2024-05-09T01:12:41.297Z,100087.59
2024-05-09T01:15:22.717Z,100062.41
2024-05-09T01:17:52.850Z,100057.31
2024-05-09T01:20:31.825Z,100045.88
2024-05-09T01:23:10.555Z,100050.00
2024-05-09T01:25:40.083Z,100023.09
2024-05-09T01:28:09.619Z,100042.59
2024-05-09T01:30:39.196Z,100034.69
2024-05-09T01:33:12.604Z,100031.13
2024-05-09T01:35:43.381Z,100021.34
2024-05-09T01:38:14.332Z,100024.59
2024-05-09T01:40:48.110Z,100017.09
2024-05-09T01:43:17.738Z,100003.72
2024-05-09T01:45:59.003Z,99999.72
2024-05-09T01:48:29.269Z,99985.47
2024-05-09T01:50:59.179Z,99965.56
2024-05-09T01:53:28.539Z,99951.47
2024-05-09T01:55:58.100Z,99966.91
2024-05-09T01:58:28.108Z,99978.06
2024-05-09T02:00:58.203Z,99971.91
2024-05-09T02:03:27.884Z,99962.69
2024-05-09T02:05:57.825Z,99950.28
2024-05-09T02:08:41.731Z,99920.66
2024-05-09T02:11:11.681Z,99907.41
2024-05-09T02:13:42.756Z,99936.03
2024-05-09T02:16:13.959Z,99925.34
2024-05-09T02:18:43.847Z,99924.16
2024-05-09T02:21:13.225Z,99926.03
2024-05-09T02:23:42.635Z,99916.44
2024-05-09T02:26:12.722Z,99919.13
2024-05-09T02:28:43.162Z,99910.78
2024-05-09T02:31:15.501Z,99889.84
2024-05-09T02:33:45.947Z,99900.75
2024-05-09T02:36:15.862Z,99865.53
2024-05-09T02:38:45.317Z,99885.66
2024-05-09T02:41:17.392Z,99891.72
2024-05-09T02:43:47.036Z,99894.09
2024-05-09T02:46:16.941Z,99913.66
2024-05-09T02:48:47.464Z,99922.31
2024-05-09T02:51:17.207Z,99927.66
2024-05-09T02:53:46.599Z,99945.13
2024-05-09T02:56:16.205Z,99935.53
2024-05-09T02:58:46.109Z,99943.72
2024-05-09T03:01:18.868Z,99901.44
2024-05-09T03:03:51.909Z,99921.72
2024-05-09T03:06:21.443Z,99931.34
2024-05-09T03:08:51.227Z,99921.22
2024-05-09T03:11:30.837Z,99954.41
2024-05-09T03:14:00.666Z,99967.38
2024-05-09T03:16:50.814Z,99966.09
2024-05-09T03:19:20.742Z,99950.25
2024-05-09T03:21:50.142Z,99937.63
2024-05-09T03:24:19.854Z,99950.53
2024-05-09T03:26:50.307Z,99929.78
2024-05-09T03:29:19.716Z,99904.16
2024-05-09T03:31:49.542Z,99931.34
2024-05-09T03:34:19.045Z,99922.50
2024-05-09T03:36:48.559Z,99906.84
2024-05-09T03:39:18.179Z,99919.69
2024-05-09T03:42:00.118Z,99898.78
2024-05-09T03:44:32.113Z,99900.53
2024-05-09T03:47:01.953Z,99863.03
2024-05-09T03:49:32.009Z,99851.41
2024-05-09T03:52:06.003Z,99841.75
2024-05-09T03:55:12.303Z,99814.78
2024-05-09T04:01:51.778Z,99795.34
2024-05-09T04:04:22.405Z,99783.56
2024-05-09T04:06:52.141Z,99808.84
2024-05-09T04:09:22.499Z,99782.19
2024-05-09T04:11:53.496Z,99769.44
2024-05-09T04:14:35.043Z,99795.06
2024-05-09T04:17:04.615Z,99769.81
2024-05-09T04:19:34.779Z,99777.91
2024-05-09T04:22:04.500Z,99770.13
2024-05-09T04:24:33.654Z,99758.72
2024-05-09T04:27:03.120Z,99745.38
2024-05-09T04:29:33.346Z,99745.91
2024-05-09T04:32:02.877Z,99757.66
2024-05-09T04:34:33.372Z,99743.50
2024-05-09T04:37:04.134Z,99743.88
2024-05-09T04:39:33.421Z,99734.78
2024-05-09T04:42:03.222Z,99729.72
2024-05-09T04:44:33.324Z,99715.91
2024-05-09T04:47:03.291Z,99735.44
2024-05-09T04:49:33.798Z,99713.91
2024-05-09T04:52:05.503Z,99724.38
2024-05-09T04:54:36.964Z,99708.81
2024-05-09T04:57:06.722Z,99714.84
2024-05-09T04:59:37.332Z,99709.78
2024-05-09T05:02:07.857Z,99693.53
2024-05-09T05:04:40.743Z,99661.28
2024-05-09T05:07:10.463Z,99693.66
2024-05-09T05:09:40.518Z,99657.31
2024-05-09T05:12:30.855Z,99685.25
2024-05-09T05:15:01.577Z,99669.84
2024-05-09T05:17:31.410Z,99671.38
2024-05-09T05:20:00.873Z,99639.50
2024-05-09T05:22:30.697Z,99640.84
2024-05-09T05:24:59.853Z,99624.81
2024-05-09T05:27:29.173Z,99629.72
2024-05-09T05:29:58.695Z,99601.91
2024-05-09T05:32:28.909Z,99616.16
2024-05-09T05:35:10.826Z,99609.34
2024-05-09T05:37:40.402Z,99619.28
2024-05-09T05:40:20.675Z,99632.91
2024-05-09T05:42:54.604Z,99658.06
2024-05-09T05:45:24.788Z,99663.03
2024-05-09T05:47:56.309Z,99675.38
2024-05-09T05:50:32.618Z,99659.19
2024-05-09T05:53:19.646Z,99663.69
2024-05-09T05:55:49.374Z,99663.84
2024-05-09T05:58:21.077Z,99677.84
2024-05-09T06:01:03.117Z,99660.94
2024-05-09T06:03:32.894Z,99652.31
2024-05-09T06:06:04.498Z,99624.81
2024-05-09T06:08:34.109Z,99616.16
2024-05-09T06:11:05.491Z,99619.09
2024-05-09T06:13:35.695Z,99627.13
2024-05-09T06:16:07.252Z,99621.16
2024-05-09T06:18:37.360Z,99617.34
2024-05-09T06:21:07.080Z,99604.81
2024-05-09T06:23:36.600Z,99622.00
2024-05-09T06:26:06.297Z,99619.66
2024-05-09T06:28:38.258Z,99618.66
2024-05-09T06:31:11.534Z,99631.78
2024-05-09T06:33:43.467Z,99604.72
2024-05-09T06:36:14.721Z,99620.59
2024-05-09T06:38:46.674Z,99625.53
2024-05-09T06:41:16.264Z,99603.97
2024-05-09T06:43:45.345Z,99611.84
2024-05-09T06:46:15.196Z,99598.09
2024-05-09T06:48:45.047Z,99590.19
2024-05-09T06:51:15.764Z,99591.66
2024-05-09T06:53:46.351Z,99575.72
2024-05-09T06:56:16.546Z,99585.34
2024-05-09T06:58:47.383Z,99576.94
2024-05-09T07:01:17.325Z,99567.34
2024-05-09T07:03:48.562Z,99564.25
2024-05-09T07:06:18.532Z,99562.78
2024-05-09T07:08:52.363Z,99597.56
2024-05-09T07:11:40.247Z,99586.91
2024-05-09T07:14:09.815Z,99584.19
2024-05-09T07:16:41.856Z,99594.00
2024-05-09T07:19:12.370Z,99616.94
2024-05-09T07:21:41.796Z,99619.47
2024-05-09T07:24:23.163Z,99636.16
2024-05-09T07:26:57.037Z,99620.22
2024-05-09T07:29:31.096Z,99621.16
2024-05-09T07:32:02.230Z,99621.22
2024-05-09T07:34:32.792Z,99616.03
2024-05-09T07:37:03.040Z,99625.13
2024-05-09T07:39:33.365Z,99628.19
2024-05-09T07:42:03.116Z,99626.28
2024-05-09T07:44:32.745Z,99628.41
2024-05-09T07:48:14.518Z,99636.06
2024-05-09T07:51:32.981Z,99634.72
2024-05-09T07:53:34.661Z,99641.56
2024-05-09T07:55:40.051Z,99629.53
2024-05-09T07:58:09.547Z,99639.84
2024-05-09T08:00:39.386Z,99630.09
2024-05-09T08:03:11.563Z,99628.78
2024-05-09T08:05:41.520Z,99610.78
2024-05-09T08:08:12.112Z,99624.88
2024-05-09T08:10:41.637Z,99615.19
2024-05-09T08:13:11.447Z,99618.91
2024-05-09T08:15:41.393Z,99626.00
2024-05-09T08:18:11.344Z,99617.63
2024-05-09T08:20:43.576Z,99611.47
2024-05-09T08:23:13.074Z,99610.50
2024-05-09T08:25:46.923Z,99603.91
2024-05-09T08:28:29.810Z,99606.16
2024-05-09T08:31:04.210Z,99597.16
2024-05-09T08:33:36.210Z,99592.81
2024-05-09T08:36:06.127Z,99585.06
2024-05-09T08:38:46.170Z,99574.63
2024-05-09T08:41:18.620Z,99589.72
2024-05-09T08:43:53.113Z,99567.66
2024-05-09T08:46:25.820Z,99547.63
2024-05-09T08:49:09.137Z,99540.72
2024-05-09T08:51:38.788Z,99503.25
2024-05-09T08:54:10.453Z,99511.56
2024-05-09T08:56:48.095Z,99490.19
2024-05-09T08:59:33.371Z,99464.69
2024-05-09T09:02:14.268Z,99467.06
2024-05-09T09:04:51.492Z,99472.06
2024-05-09T09:07:22.856Z,99474.19
2024-05-09T09:09:54.628Z,99475.56
2024-05-09T09:12:25.546Z,99477.78
2024-05-09T09:14:55.511Z,99458.06
2024-05-09T09:17:26.709Z,99466.16
2024-05-09T09:19:56.386Z,99473.75
2024-05-09T09:22:35.437Z,99470.47
2024-05-09T09:25:06.092Z,99453.44
2024-05-09T09:27:37.363Z,99469.22
2024-05-09T09:30:18.520Z,99475.19
2024-05-09T09:32:57.474Z,99456.38
2024-05-09T09:35:28.318Z,99454.91
2024-05-09T09:38:03.543Z,99453.88
2024-05-09T09:40:42.881Z,99440.91
2024-05-09T09:43:25.493Z,99424.56
2024-05-09T09:46:01.823Z,99435.94
2024-05-09T09:48:34.113Z,99426.59
2024-05-09T09:51:04.297Z,99429.28
2024-05-09T09:53:39.050Z,99424.88
2024-05-09T09:56:11.318Z,99424.22
2024-05-09T09:58:43.529Z,99404.59
2024-05-09T10:01:15.162Z,99421.50
2024-05-09T10:03:47.494Z,99393.13
2024-05-09T10:06:18.940Z,99423.06
2024-05-09T10:08:49.857Z,99406.00
2024-05-09T10:11:23.172Z,99418.72
2024-05-09T10:13:58.695Z,99403.31
2024-05-09T10:16:32.676Z,99397.41
2024-05-09T10:19:03.827Z,99389.28
2024-05-09T10:21:33.428Z,99382.19
2024-05-09T10:24:10.072Z,99380.91
2024-05-09T10:26:39.975Z,99391.97
2024-05-09T10:29:17.405Z,99386.50
2024-05-09T10:31:50.554Z,99380.47
2024-05-09T10:34:22.667Z,99376.66
2024-05-09T10:36:57.178Z,99366.06
2024-05-09T10:39:30.360Z,99366.31
2024-05-09T10:42:00.972Z,99358.00
2024-05-09T10:44:30.529Z,99353.47
2024-05-09T10:47:01.623Z,99352.19
2024-05-09T10:49:32.076Z,99351.97
2024-05-09T10:52:06.092Z,99348.75
2024-05-09T10:54:38.611Z,99339.13
2024-05-09T10:57:08.483Z,99338.47
2024-05-09T10:59:40.523Z,99339.19
2024-05-09T11:02:11.623Z,99321.38
2024-05-09T11:04:43.138Z,99338.44
2024-05-09T11:07:20.369Z,99339.00
2024-05-09T11:09:50.813Z,99340.13
2024-05-09T11:12:23.605Z,99339.81
2024-05-09T11:14:56.236Z,99325.34
2024-05-09T11:17:27.622Z,99335.00
2024-05-09T11:20:01.176Z,99317.09
2024-05-09T11:22:36.756Z,99336.88
2024-05-09T11:25:07.813Z,99346.63
2024-05-09T11:27:41.955Z,99346.13
2024-05-09T11:30:26.983Z,99338.75
2024-05-09T11:33:03.678Z,99365.13
2024-05-09T11:35:33.980Z,99380.16
2024-05-09T11:38:06.970Z,99429.91
2024-05-09T11:40:39.777Z,99429.03
2024-05-09T11:43:10.730Z,99469.28
2024-05-09T11:45:44.013Z,99470.94
2024-05-09T11:48:14.728Z,99485.63
2024-05-09T11:50:47.144Z,99494.28
2024-05-09T11:53:18.154Z,99511.03
2024-05-09T11:55:48.745Z,99534.94
2024-05-09T11:58:19.453Z,99531.28
2024-05-09T12:00:50.412Z,99582.28
2024-05-09T12:03:20.187Z,99587.19
2024-05-09T12:06:10.335Z,99573.41
2024-05-09T12:08:40.947Z,99551.38
2024-05-09T12:11:14.932Z,99538.41
2024-05-09T12:13:45.252Z,99547.84
2024-05-09T12:16:36.740Z,99549.97
2024-05-09T12:19:18.482Z,99544.06
2024-05-09T12:22:19.863Z,99519.00
2024-05-09T12:24:50.227Z,99511.13
2024-05-09T12:27:40.805Z,99458.38
2024-05-09T12:30:14.233Z,99333.41
2024-05-09T12:32:49.572Z,99326.59
2024-05-09T12:35:41.072Z,99364.38
2024-05-09T12:38:14.171Z,99393.44
2024-05-09T12:40:43.905Z,99386.47
2024-05-09T12:43:13.410Z,99377.59
2024-05-09T12:45:42.983Z,99362.06
2024-05-09T12:48:15.720Z,99349.69
2024-05-09T12:51:08.126Z,99352.28
2024-05-09T12:53:39.598Z,99338.59
2024-05-09T12:56:14.211Z,99335.28
2024-05-09T12:58:44.894Z,99312.28
2024-05-09T13:01:27.728Z,99296.03
2024-05-09T13:03:57.451Z,99281.22
2024-05-09T13:06:31.514Z,99257.09
2024-05-09T13:09:04.666Z,99242.09
2024-05-09T13:11:52.021Z,99230.09
2024-05-09T13:14:23.021Z,99216.53
2024-05-09T13:16:55.486Z,99215.63
2024-05-09T13:19:27.159Z,99197.56
2024-05-09T13:21:57.262Z,99194.94
2024-05-09T13:24:29.174Z,99176.00
2024-05-09T13:26:58.679Z,99181.91
2024-05-09T13:29:42.803Z,99155.03
2024-05-09T13:32:22.249Z,99157.06
2024-05-09T13:34:51.897Z,99150.66
2024-05-09T13:37:21.441Z,99151.97
2024-05-09T13:39:53.129Z,99148.28
2024-05-09T13:42:23.664Z,99151.66
2024-05-09T13:44:53.200Z,99163.09
2024-05-09T13:47:23.014Z,99155.75
2024-05-09T13:49:56.860Z,99153.75
2024-05-09T13:52:27.760Z,99129.91
2024-05-09T13:55:09.862Z,99125.91
2024-05-09T13:57:39.591Z,99141.56
2024-05-09T14:00:22.941Z,99140.19
2024-05-09T14:03:02.303Z,99130.81
2024-05-09T14:05:33.239Z,99118.56
2024-05-09T14:08:02.874Z,99118.56
2024-05-09T14:10:32.847Z,99120.25
2024-05-09T14:13:02.674Z,99099.75
2024-05-09T14:15:34.699Z,99044.31
2024-05-09T14:18:07.028Z,99101.00
2024-05-09T14:20:39.298Z,99110.34
2024-05-09T14:23:11.590Z,99116.38
2024-05-09T14:25:42.907Z,99124.84
2024-05-09T14:28:13.970Z,99118.94
2024-05-09T14:30:43.528Z,99098.38
2024-05-09T14:33:13.643Z,99109.31
2024-05-09T14:35:45.130Z,99121.03
2024-05-09T14:38:17.566Z,99106.56
2024-05-09T14:40:49.392Z,99087.25
2024-05-09T14:43:20.271Z,99108.66
2024-05-09T14:45:50.118Z,99103.78
2024-05-09T14:48:20.710Z,99114.78
2024-05-09T14:50:52.736Z,99119.91
2024-05-09T14:53:27.439Z,99120.38
2024-05-09T14:55:59.313Z,99092.34
2024-05-09T14:58:31.221Z,99108.63
2024-05-09T15:01:00.963Z,99052.22
2024-05-09T15:03:32.425Z,99109.84
2024-05-09T15:06:04.958Z,99113.78
2024-05-09T15:08:34.656Z,99115.22
2024-05-09T15:11:04.305Z,99121.88
2024-05-09T15:13:35.873Z,99117.81
2024-05-09T15:16:07.132Z,99117.28
2024-05-09T15:18:39.218Z,99117.34
2024-05-09T15:21:10.902Z,99123.56
2024-05-09T15:23:41.812Z,99123.88
2024-05-09T15:26:16.648Z,99116.75
2024-05-09T15:28:46.225Z,99084.41
2024-05-09T15:31:15.542Z,99097.88
2024-05-09T15:33:46.805Z,99096.47
2024-05-09T15:36:16.606Z,99104.31
2024-05-09T15:38:48.090Z,99100.84
2024-05-09T15:41:21.524Z,99094.78
2024-05-09T15:43:54.311Z,99087.66
2024-05-09T15:46:25.018Z,99075.38
2024-05-09T15:48:56.960Z,99079.69
2024-05-09T15:51:27.872Z,99067.94
2024-05-09T15:53:58.885Z,99076.06
2024-05-09T15:56:28.496Z,99086.22
2024-05-09T15:58:58.790Z,99040.19
2024-05-09T16:01:29.434Z,99077.25
2024-05-09T16:04:01.362Z,99065.88
2024-05-09T16:06:31.421Z,99072.63
2024-05-09T16:09:01.124Z,99062.75
2024-05-09T16:11:31.688Z,99053.69
2024-05-09T16:14:01.065Z,99049.31
2024-05-09T16:16:31.957Z,99041.06
2024-05-09T16:19:04.278Z,99044.72
2024-05-09T16:21:36.570Z,99030.53
2024-05-09T16:24:10.534Z,99038.94
2024-05-09T16:26:45.450Z,99053.09
2024-05-09T16:29:19.724Z,99039.66
2024-05-09T16:31:49.179Z,99036.72
2024-05-09T16:34:21.173Z,99028.13
2024-05-09T16:36:55.797Z,99035.59
2024-05-09T16:39:25.841Z,99026.19
2024-05-09T16:41:58.699Z,99031.78
2024-05-09T16:44:28.784Z,99018.44
2024-05-09T16:46:58.691Z,99010.31
2024-05-09T16:49:31.696Z,99009.09
2024-05-09T16:52:04.551Z,99013.81
2024-05-09T16:54:36.009Z,98991.97
2024-05-09T16:57:05.917Z,98977.13
2024-05-09T16:59:35.684Z,98990.28
2024-05-09T17:02:12.567Z,98985.53
2024-05-09T17:04:43.840Z,98981.34
2024-05-09T17:07:16.844Z,98985.69
2024-05-09T17:09:46.388Z,98975.72
2024-05-09T17:12:17.845Z,98953.28
2024-05-09T17:14:48.492Z,98971.94
2024-05-09T17:17:19.663Z,98980.09
2024-05-09T17:19:50.182Z,98958.50
2024-05-09T17:22:21.076Z,98952.47
2024-05-09T17:24:52.043Z,98952.47
2024-05-09T17:27:23.038Z,98952.03
2024-05-09T17:29:55.372Z,98938.69
2024-05-09T17:32:27.119Z,98936.03
2024-05-09T17:34:57.947Z,98934.63
2024-05-09T17:37:28.211Z,98914.03
2024-05-09T17:39:57.786Z,98924.94
2024-05-09T17:42:27.333Z,98923.97
2024-05-09T17:44:56.705Z,98917.66
2024-05-09T17:47:27.330Z,98915.44
2024-05-09T17:50:00.046Z,98912.59
2024-05-09T17:52:29.655Z,98922.84
2024-05-09T17:55:00.732Z,98910.25
2024-05-09T17:57:32.515Z,98916.81
2024-05-09T18:00:11.098Z,98917.66
2024-05-09T18:02:44.460Z,98919.94
2024-05-09T18:05:15.228Z,99147.66
2024-05-09T18:07:45.080Z,99053.50
2024-05-09T18:10:22.559Z,99113.25
2024-05-09T18:13:03.730Z,99080.66
2024-05-09T18:15:38.890Z,99096.47
2024-05-09T18:18:09.537Z,99115.69
2024-05-09T18:20:44.708Z,99108.06
2024-05-09T18:23:19.151Z,99101.16
2024-05-09T18:25:48.761Z,99112.78
2024-05-09T18:28:19.559Z,99113.06
2024-05-09T18:30:49.152Z,99112.94
2024-05-09T18:33:20.051Z,99109.41
2024-05-09T18:35:49.795Z,99100.47
2024-05-09T18:38:26.274Z,99097.38
2024-05-09T18:41:05.101Z,99088.16
2024-05-09T18:43:42.189Z,99094.47
2024-05-09T18:46:16.028Z,99084.25
2024-05-09T18:48:47.087Z,99090.72
2024-05-09T18:51:18.003Z,99091.00
2024-05-09T18:53:47.504Z,99092.69
2024-05-09T18:56:16.846Z,99091.41
2024-05-09T18:58:47.826Z,99072.41
2024-05-09T19:01:17.381Z,99096.44
2024-05-09T19:03:49.137Z,99087.91
2024-05-09T19:06:23.909Z,99123.00
2024-05-09T19:09:06.633Z,99121.59
2024-05-09T19:11:36.578Z,99139.31
2024-05-09T19:14:07.998Z,99135.66
2024-05-09T19:16:38.047Z,99127.19
2024-05-09T19:19:08.885Z,99123.56
2024-05-09T19:21:41.175Z,99120.34
2024-05-09T19:24:12.104Z,99085.38
2024-05-09T19:26:43.988Z,99087.00
2024-05-09T19:29:13.135Z,99080.09
2024-05-09T19:31:44.070Z,99070.09
2024-05-09T19:34:13.522Z,99005.50
2024-05-09T19:36:43.352Z,98910.50
2024-05-09T19:39:12.876Z,98832.94
2024-05-09T19:41:44.987Z,98828.72
2024-05-09T19:44:15.498Z,98820.59
2024-05-09T19:46:49.615Z,98839.19
2024-05-09T19:49:19.161Z,98835.38
2024-05-09T19:51:48.729Z,98815.81
2024-05-09T19:54:18.268Z,98835.56
2024-05-09T19:56:49.386Z,98830.81
2024-05-09T19:59:18.864Z,98833.56
2024-05-09T20:01:50.793Z,98829.97
2024-05-09T20:04:21.515Z,98826.13
2024-05-09T20:06:52.773Z,98839.94
2024-05-09T20:09:22.381Z,98842.22
2024-05-09T20:11:51.752Z,98840.81
2024-05-09T20:14:23.250Z,98842.53
2024-05-09T20:16:54.199Z,98849.31
2024-05-09T20:19:24.446Z,98845.69
2024-05-09T20:21:54.301Z,98837.00
2024-05-09T20:24:24.463Z,98851.44
2024-05-09T20:26:54.258Z,98824.56
2024-05-09T20:29:23.791Z,98841.66
2024-05-09T20:31:54.065Z,98835.09
2024-05-09T20:34:23.598Z,98842.91
2024-05-09T20:36:53.186Z,98837.44
2024-05-09T20:39:27.635Z,98855.44
2024-05-09T20:41:57.317Z,98845.31
2024-05-09T20:44:26.933Z,98840.97
2024-05-09T20:46:56.123Z,98844.59
2024-05-09T20:49:27.262Z,98837.88
2024-05-09T20:51:56.913Z,98855.81
2024-05-09T20:54:26.236Z,98848.53
2024-05-09T20:56:55.719Z,98859.63
2024-05-09T20:59:25.228Z,98830.91
2024-05-09T21:01:55.945Z,98860.59
2024-05-09T21:04:26.120Z,98855.00
2024-05-09T21:06:55.489Z,98851.22
2024-05-09T21:09:26.798Z,98868.56
2024-05-09T21:11:56.059Z,98876.81
2024-05-09T21:14:25.673Z,98872.19
2024-05-09T21:16:55.188Z,98879.88
2024-05-09T21:19:26.353Z,98884.31
2024-05-09T21:21:57.566Z,98881.53
2024-05-09T21:24:27.066Z,98892.69
2024-05-09T21:26:56.545Z,98884.28
2024-05-09T21:29:26.767Z,98869.16
2024-05-09T21:31:58.300Z,98881.19
2024-05-09T21:34:30.646Z,98885.88
2024-05-09T21:37:02.253Z,98882.81
2024-05-09T21:39:32.020Z,98870.38
2024-05-09T21:42:02.823Z,98891.06
2024-05-09T21:44:32.039Z,98905.22
2024-05-09T21:47:01.726Z,98908.97
2024-05-09T21:49:31.129Z,98914.69
2024-05-09T21:52:00.781Z,98938.00
2024-05-09T21:54:30.377Z,98940.22
2024-05-09T21:56:59.832Z,98949.03
2024-05-09T21:59:29.348Z,98941.44
2024-05-09T22:01:59.307Z,98936.19
2024-05-09T22:04:28.876Z,98942.03
2024-05-09T22:06:58.576Z,98943.25
2024-05-09T22:09:28.398Z,98948.69
2024-05-09T22:11:58.208Z,98956.09
2024-05-09T22:14:27.839Z,98926.47
2024-05-09T22:16:57.328Z,98955.59
2024-05-09T22:19:27.145Z,98958.31
2024-05-09T22:21:57.256Z,98965.19
2024-05-09T22:24:26.716Z,98967.97
2024-05-09T22:26:56.254Z,98952.94
2024-05-09T22:29:26.174Z,98954.88
2024-05-09T22:31:56.299Z,98983.19
2024-05-09T22:34:26.251Z,98989.22
2024-05-09T22:36:55.898Z,98982.22
2024-05-09T22:39:25.617Z,98994.97
2024-05-09T22:41:54.827Z,99001.72
2024-05-09T22:44:24.066Z,98984.34
2024-05-09T22:46:53.667Z,98987.84
2024-05-09T22:49:22.971Z,98978.59
2024-05-09T22:51:52.532Z,98991.09
2024-05-09T22:54:22.045Z,98996.66
2024-05-09T22:56:51.298Z,99005.91
2024-05-09T22:59:20.598Z,99014.50
2024-05-09T23:01:50.136Z,99014.34
2024-05-09T23:04:19.772Z,98990.75
2024-05-09T23:06:52.561Z,99011.59
2024-05-09T23:09:21.832Z,99004.94
2024-05-09T23:11:51.784Z,99003.16
2024-05-09T23:14:21.509Z,99014.25
2024-05-09T23:17:02.691Z,99013.53
2024-05-09T23:19:32.208Z,99015.47
2024-05-09T23:22:01.785Z,99016.44
2024-05-09T23:24:31.922Z,99019.66
2024-05-09T23:27:01.516Z,99010.16
2024-05-09T23:29:30.798Z,99014.50
2024-05-09T23:32:00.299Z,99024.56
2024-05-09T23:34:30.140Z,99029.78
2024-05-09T23:36:59.919Z,99030.13
2024-05-09T23:39:29.408Z,99050.19
2024-05-09T23:42:10.797Z,99027.16
2024-05-09T23:44:40.151Z,99047.88
2024-05-09T23:47:11.079Z,99044.47
2024-05-09T23:49:40.475Z,99046.28
2024-05-09T23:52:10.180Z,99054.22
2024-05-09T23:54:39.610Z,99057.38
2024-05-09T23:57:21.160Z,99069.41
2024-05-09T23:59:50.808Z,99069.41
